Time;durP1;ratioP1;P1;durP2;ratioP2;P2;SDS_P1;SDS_P2;PMS_P1;PMS_P2;Temp;Humidity;BMP_temperature;BMP_pressure;BME280_temperature;BME280_humidity;BME280_pressure;Samples;Min_cycle;Max_cycle;Signal;HPM_P1;HPM_P2
2022/03/22 00:01:35;;;;;;;;;;;10.60;99.90;;;;;;4989798;28;20398;-73
2022/03/22 00:04:02;;;;;;;;;;;10.60;99.90;;;;;;4989672;28;19927;-73
2022/03/22 00:06:29;;;;;;;;;;;10.60;99.90;;;;;;4989919;28;19957;-73
2022/03/22 00:08:56;;;;;;;;;;;10.60;99.90;;;;;;4973305;28;19926;-73
2022/03/22 00:11:23;;;;;;;;;;;10.60;99.90;;;;;;4989514;28;19926;-73
2022/03/22 00:13:50;;;;;;;;;;;10.60;99.90;;;;;;4989438;28;19930;-73
2022/03/22 00:16:17;;;;;;;;;;;10.60;99.90;;;;;;4989428;28;19926;-74
2022/03/22 00:18:46;;;;;;;;;;;10.50;99.90;;;;;;4989250;28;19926;-73
2022/03/22 00:21:13;;;;;;;;;;;10.50;99.90;;;;;;4989393;28;19965;-74
2022/03/22 00:23:40;;;;;;;;;;;10.50;99.90;;;;;;4989532;28;19933;-73
2022/03/22 00:26:07;;;;;;;;;;;10.50;99.90;;;;;;4989919;28;19934;-74
2022/03/22 00:28:34;;;;;;;;;;;10.50;99.90;;;;;;4989532;28;19930;-74
2022/03/22 00:31:01;;;;;;;;;;;10.40;99.90;;;;;;4989169;28;19949;-74
2022/03/22 00:33:28;;;;;;;;;;;10.40;99.90;;;;;;4989475;28;19930;-74
2022/03/22 00:35:57;;;;;;;;;;;10.40;99.90;;;;;;4989293;28;20390;-74
2022/03/22 00:38:23;;;;;;;;;;;10.30;99.90;;;;;;4989022;28;20454;-73
2022/03/22 00:40:51;;;;;;;;;;;10.30;99.90;;;;;;4988963;28;19937;-74
2022/03/22 00:43:18;;;;;;;;;;;10.20;99.90;;;;;;4988698;28;19926;-74
2022/03/22 00:45:46;;;;;;;;;;;10.20;99.90;;;;;;4988919;28;19933;-73
2022/03/22 00:48:13;;;;;;;;;;;10.20;99.90;;;;;;4972958;28;19926;-73
2022/03/22 00:50:41;;;;;;;;;;;10.20;99.90;;;;;;4988630;28;19933;-73
2022/03/22 00:53:09;;;;;;;;;;;10.20;99.90;;;;;;4972793;28;19934;-74
2022/03/22 00:55:37;;;;;;;;;;;10.20;99.90;;;;;;4988421;28;20025;-73
2022/03/22 00:58:04;;;;;;;;;;;10.20;99.90;;;;;;4988878;28;19927;-73
2022/03/22 01:00:31;;;;;;;;;;;10.20;99.90;;;;;;4988616;28;19930;-73
2022/03/22 01:02:59;;;;;;;;;;;10.20;99.90;;;;;;4972437;28;19933;-74
2022/03/22 01:05:27;;;;;;;;;;;10.20;99.90;;;;;;4972371;28;19930;-73
2022/03/22 01:07:55;;;;;;;;;;;10.20;99.90;;;;;;4988534;28;19926;-73
2022/03/22 01:10:24;;;;;;;;;;;10.20;99.90;;;;;;4988686;28;19926;-73
2022/03/22 01:12:51;;;;;;;;;;;10.10;99.90;;;;;;4988208;28;20014;-74
2022/03/22 01:15:18;;;;;;;;;;;10.10;99.90;;;;;;4988121;28;19926;-73
2022/03/22 01:17:46;;;;;;;;;;;10.10;99.90;;;;;;4988634;28;20381;-73
2022/03/22 01:20:13;;;;;;;;;;;10.00;99.90;;;;;;4988363;28;19926;-73
2022/03/22 01:22:41;;;;;;;;;;;10.00;99.90;;;;;;4988300;28;19927;-73
2022/03/22 01:25:08;;;;;;;;;;;10.00;99.90;;;;;;4988319;28;19933;-74
2022/03/22 01:27:37;;;;;;;;;;;10.00;99.90;;;;;;4988448;28;19926;-73
2022/03/22 01:30:05;;;;;;;;;;;9.90;99.90;;;;;;4988253;28;19926;-73
2022/03/22 01:32:31;;;;;;;;;;;9.90;99.90;;;;;;4988062;28;19933;-73
2022/03/22 01:34:58;;;;;;;;;;;9.90;99.90;;;;;;4988140;28;19926;-73
2022/03/22 01:37:25;;;;;;;;;;;9.80;99.90;;;;;;4988271;28;19926;-73
2022/03/22 01:39:52;;;;;;;;;;;9.80;99.90;;;;;;4988253;28;19926;-73
2022/03/22 01:42:19;;;;;;;;;;;9.70;99.90;;;;;;4987929;28;19926;-73
2022/03/22 01:44:47;;;;;;;;;;;9.70;99.90;;;;;;4988035;28;19927;-73
2022/03/22 01:47:16;;;;;;;;;;;9.70;99.90;;;;;;4987917;28;19926;-73
2022/03/22 01:49:43;;;;;;;;;;;9.70;99.90;;;;;;4988179;28;19926;-73
2022/03/22 01:52:14;;;;;;;;;;;9.70;99.90;;;;;;4987913;28;19926;-73
2022/03/22 01:54:41;;;;;;;;;;;9.70;99.90;;;;;;4989013;28;19930;-74
2022/03/22 01:57:10;;;;;;;;;;;9.70;99.90;;;;;;4975481;28;19926;-74
2022/03/22 01:59:37;;;;;;;;;;;9.60;99.90;;;;;;4991910;28;19930;-73
2022/03/22 02:07:47;;;;;;;;;;;9.40;99.90;;;;;;4954860;29;19922;-72
2022/03/22 02:10:13;;;;;;;;;;;9.30;99.90;;;;;;4966100;28;19930;-73
2022/03/22 02:12:43;;;;;;;;;;;9.30;99.90;;;;;;4991083;28;19934;-73
2022/03/22 02:15:09;;;;;;;;;;;9.20;99.90;;;;;;4992386;28;20297;-74
2022/03/22 02:17:38;;;;;;;;;;;9.20;99.90;;;;;;4992561;28;19926;-73
2022/03/22 02:20:05;;;;;;;;;;;9.10;99.90;;;;;;4976339;28;20361;-74
2022/03/22 02:22:34;;;;;;;;;;;9.10;99.90;;;;;;4991798;28;19926;-74
2022/03/22 02:25:03;;;;;;;;;;;9.10;99.90;;;;;;4975280;28;19962;-74
2022/03/22 02:27:34;;;;;;;;;;;9.00;99.90;;;;;;5002282;28;19933;-75
2022/03/22 02:30:01;;;;;;;;;;;9.00;99.90;;;;;;5011137;28;19925;-74
2022/03/22 02:32:27;;;;;;;;;;;8.90;99.90;;;;;;5010775;28;19933;-74
2022/03/22 02:34:54;;;;;;;;;;;8.90;99.90;;;;;;5010749;28;19940;-74
2022/03/22 02:37:21;;;;;;;;;;;8.80;99.90;;;;;;5010600;28;19925;-74
2022/03/22 02:39:48;;;;;;;;;;;8.80;99.90;;;;;;5010781;28;19932;-74
2022/03/22 02:42:16;;;;;;;;;;;8.70;99.90;;;;;;5010543;28;19941;-74
2022/03/22 02:44:43;;;;;;;;;;;8.70;99.90;;;;;;5010857;28;19929;-74
2022/03/22 02:47:10;;;;;;;;;;;8.60;99.90;;;;;;5010923;28;19952;-74
2022/03/22 02:49:37;;;;;;;;;;;8.60;99.90;;;;;;5010712;28;19926;-74
2022/03/22 02:52:04;;;;;;;;;;;8.50;99.90;;;;;;4994065;28;19926;-73
2022/03/22 02:54:31;;;;;;;;;;;8.50;99.90;;;;;;5010477;28;19926;-74
2022/03/22 02:56:58;;;;;;;;;;;8.50;99.90;;;;;;5010531;28;19925;-74
2022/03/22 02:59:26;;;;;;;;;;;8.40;99.90;;;;;;4994325;28;20397;-74
2022/03/22 03:01:53;;;;;;;;;;;8.40;99.90;;;;;;5010457;28;19976;-74
2022/03/22 03:04:20;;;;;;;;;;;8.30;99.90;;;;;;5010542;28;19933;-74
2022/03/22 03:06:47;;;;;;;;;;;8.30;99.90;;;;;;5009975;28;19933;-74
2022/03/22 03:09:13;;;;;;;;;;;8.20;99.90;;;;;;5009969;28;19996;-74
2022/03/22 03:11:40;;;;;;;;;;;8.20;99.90;;;;;;5010307;28;19933;-74
2022/03/22 03:16:53;;;;;;;;;;;8.20;99.90;;;;;;4994023;28;19933;-74
2022/03/22 03:19:20;;;;;;;;;;;8.20;99.90;;;;;;5010105;28;19925;-74
2022/03/22 03:21:46;;;;;;;;;;;8.20;99.90;;;;;;5010093;28;19961;-74
2022/03/22 03:24:13;;;;;;;;;;;8.20;99.90;;;;;;5009807;28;19930;-74
2022/03/22 03:26:40;;;;;;;;;;;8.20;99.90;;;;;;5009999;28;19934;-74
2022/03/22 03:29:09;;;;;;;;;;;8.10;99.90;;;;;;5009811;28;20305;-74
2022/03/22 03:31:35;;;;;;;;;;;8.10;99.90;;;;;;4993417;28;20389;-74
2022/03/22 03:34:04;;;;;;;;;;;8.10;99.90;;;;;;5009833;28;19926;-74
2022/03/22 03:36:31;;;;;;;;;;;8.10;99.90;;;;;;5009866;28;20366;-74
2022/03/22 03:38:59;;;;;;;;;;;8.00;99.90;;;;;;5009393;28;19926;-73
2022/03/22 03:47:07;;;;;;;;;;;7.90;99.90;;;;;;4992454;28;19929;-74
2022/03/22 03:49:36;;;;;;;;;;;7.90;99.90;;;;;;5009047;28;20033;-74
2022/03/22 03:52:03;;;;;;;;;;;7.90;99.90;;;;;;4992806;28;19929;-71
2022/03/22 03:54:30;;;;;;;;;;;7.90;99.90;;;;;;5009408;28;19926;-74
2022/03/22 03:56:57;;;;;;;;;;;7.80;99.90;;;;;;5009647;28;19926;-74
2022/03/22 03:59:24;;;;;;;;;;;7.80;99.90;;;;;;5008989;28;19930;-74
2022/03/22 04:01:51;;;;;;;;;;;7.70;99.90;;;;;;5008250;28;19926;-74
2022/03/22 04:04:18;;;;;;;;;;;7.70;99.90;;;;;;5008002;28;19933;-74
2022/03/22 04:06:47;;;;;;;;;;;7.70;99.90;;;;;;5008554;28;19926;-75
2022/03/22 04:09:14;;;;;;;;;;;7.70;99.90;;;;;;5008773;28;19937;-74
2022/03/22 04:11:41;;;;;;;;;;;7.70;99.90;;;;;;4992192;28;19945;-74
2022/03/22 04:14:08;;;;;;;;;;;7.70;99.90;;;;;;5008561;28;19925;-74
2022/03/22 04:16:36;;;;;;;;;;;7.60;99.90;;;;;;4991880;28;19926;-74
2022/03/22 04:19:03;;;;;;;;;;;7.60;99.90;;;;;;5007792;28;20394;-74
2022/03/22 04:21:30;;;;;;;;;;;7.60;99.90;;;;;;4991963;28;20336;-74
2022/03/22 04:23:59;;;;;;;;;;;7.60;99.90;;;;;;5008051;28;19926;-72
2022/03/22 04:26:26;;;;;;;;;;;7.60;99.90;;;;;;5008237;28;19925;-73
2022/03/22 04:34:21;;;;;;;;;;;7.60;99.90;;;;;;4991491;28;19972;-74
2022/03/22 04:36:55;;;;;;;;;;;7.60;99.90;;;;;;4991765;28;19972;-76
2022/03/22 04:39:24;;;;;;;;;;;7.60;99.90;;;;;;4991447;28;19961;-73
2022/03/22 04:41:51;;;;;;;;;;;7.60;99.90;;;;;;5007759;28;19950;-74
2022/03/22 04:44:18;;;;;;;;;;;7.50;99.90;;;;;;5007850;28;19926;-73
2022/03/22 04:46:46;;;;;;;;;;;7.50;99.90;;;;;;5007810;28;19930;-73
2022/03/22 04:49:13;;;;;;;;;;;7.40;99.90;;;;;;4991793;28;20390;-72
2022/03/22 04:57:11;;;;;;;;;;;7.20;99.90;;;;;;4991362;28;20007;-73
2022/03/22 04:59:37;;;;;;;;;;;7.20;99.90;;;;;;5007076;28;19930;-73
2022/03/22 05:02:05;;;;;;;;;;;7.10;99.90;;;;;;5007888;28;19937;-72
2022/03/22 05:04:31;;;;;;;;;;;7.10;99.90;;;;;;5007441;28;19933;-75
2022/03/22 05:06:58;;;;;;;;;;;7.00;99.90;;;;;;5008118;28;19925;-73
2022/03/22 05:09:28;;;;;;;;;;;7.00;99.90;;;;;;5007540;28;20121;-74
2022/03/22 05:11:55;;;;;;;;;;;7.00;99.90;;;;;;5007879;28;20352;-74
2022/03/22 05:14:22;;;;;;;;;;;6.90;99.90;;;;;;5007393;28;20024;-73
2022/03/22 05:16:48;;;;;;;;;;;6.90;99.90;;;;;;5007385;28;19926;-73
2022/03/22 05:19:15;;;;;;;;;;;6.90;99.90;;;;;;4991389;28;20325;-73
2022/03/22 05:21:42;;;;;;;;;;;6.90;99.90;;;;;;5007875;28;19926;-73
2022/03/22 05:24:09;;;;;;;;;;;7.00;99.90;;;;;;5007170;28;19933;-74
2022/03/22 05:26:37;;;;;;;;;;;7.00;99.90;;;;;;5007324;28;19926;-74
2022/03/22 05:29:05;;;;;;;;;;;6.90;99.90;;;;;;5007110;28;19930;-74
2022/03/22 05:31:32;;;;;;;;;;;7.00;99.90;;;;;;5007189;28;19925;-73
2022/03/22 05:33:59;;;;;;;;;;;7.00;99.90;;;;;;4991022;28;19988;-73
2022/03/22 05:36:26;;;;;;;;;;;7.00;99.90;;;;;;5007326;28;20370;-73
2022/03/22 05:38:53;;;;;;;;;;;7.00;99.90;;;;;;5007341;28;19933;-73
2022/03/22 05:41:20;;;;;;;;;;;7.00;99.90;;;;;;5007188;28;19965;-74
2022/03/22 05:43:48;;;;;;;;;;;6.90;99.90;;;;;;5007058;28;19926;-73
2022/03/22 05:46:17;;;;;;;;;;;6.90;99.90;;;;;;5007179;28;19933;-73
2022/03/22 05:48:43;;;;;;;;;;;6.90;99.90;;;;;;5007138;28;19926;-74
2022/03/22 05:51:11;;;;;;;;;;;7.00;99.90;;;;;;5007128;28;19926;-72
2022/03/22 05:53:38;;;;;;;;;;;7.10;99.90;;;;;;4991145;28;20021;-73
2022/03/22 05:56:05;;;;;;;;;;;7.10;99.90;;;;;;5007174;28;19937;-73
2022/03/22 05:58:32;;;;;;;;;;;7.20;99.90;;;;;;5007019;28;19926;-73
2022/03/22 06:01:00;;;;;;;;;;;7.20;99.90;;;;;;5006683;28;20391;-74
2022/03/22 06:03:27;;;;;;;;;;;7.30;99.90;;;;;;4996109;28;19926;-74
2022/03/22 06:05:54;;;;;;;;;;;7.30;99.90;;;;;;5006754;28;19926;-73
2022/03/22 06:08:21;;;;;;;;;;;7.30;99.90;;;;;;5007253;28;19926;-73
2022/03/22 06:10:48;;;;;;;;;;;7.40;99.90;;;;;;5006797;28;19977;-73
2022/03/22 06:13:14;;;;;;;;;;;7.40;99.90;;;;;;5006871;28;19930;-73
2022/03/22 06:15:41;;;;;;;;;;;7.50;99.90;;;;;;5006835;28;19926;-75
2022/03/22 06:18:11;;;;;;;;;;;7.50;99.90;;;;;;5007271;28;19926;-74
2022/03/22 06:20:38;;;;;;;;;;;7.60;99.90;;;;;;5006943;28;19926;-72
2022/03/22 06:23:06;;;;;;;;;;;7.70;99.90;;;;;;5007131;28;19926;-74
2022/03/22 06:25:34;;;;;;;;;;;7.70;99.90;;;;;;5003479;28;19933;-75
2022/03/22 06:28:01;;;;;;;;;;;7.80;99.90;;;;;;4989790;28;19926;-73
2022/03/22 06:30:28;;;;;;;;;;;7.80;99.90;;;;;;5006808;28;19926;-73
2022/03/22 06:32:56;;;;;;;;;;;7.80;99.90;;;;;;5006920;28;19930;-74
2022/03/22 06:35:26;;;;;;;;;;;7.90;99.90;;;;;;5006758;28;19980;-73
2022/03/22 06:37:53;;;;;;;;;;;7.90;99.90;;;;;;4990655;28;19933;-74
2022/03/22 06:40:21;;;;;;;;;;;8.00;99.90;;;;;;4990621;28;20021;-73
2022/03/22 06:42:48;;;;;;;;;;;8.10;99.90;;;;;;5010420;28;19933;-73
2022/03/22 06:45:15;;;;;;;;;;;8.10;99.90;;;;;;5010090;28;19925;-73
2022/03/22 06:47:43;;;;;;;;;;;8.20;99.90;;;;;;4994151;28;19933;-77
2022/03/22 06:50:11;;;;;;;;;;;8.30;99.90;;;;;;4993320;28;19933;-74
2022/03/22 06:52:39;;;;;;;;;;;8.30;99.90;;;;;;4993458;28;19988;-75
2022/03/22 06:55:06;;;;;;;;;;;8.40;99.90;;;;;;4993579;28;19933;-75
2022/03/22 06:57:34;;;;;;;;;;;8.50;99.90;;;;;;5010016;28;20356;-75
2022/03/22 07:00:01;;;;;;;;;;;8.60;99.90;;;;;;4993219;28;20309;-74
2022/03/22 07:02:28;;;;;;;;;;;8.60;99.90;;;;;;4993618;28;19936;-78
2022/03/22 07:04:55;;;;;;;;;;;8.70;99.90;;;;;;4992937;28;19925;-75
2022/03/22 07:07:22;;;;;;;;;;;8.80;99.90;;;;;;4993261;28;19926;-74
2022/03/22 07:09:51;;;;;;;;;;;8.80;99.90;;;;;;4993434;28;19949;-75
2022/03/22 07:12:17;;;;;;;;;;;8.90;99.90;;;;;;4993746;28;19926;-75
2022/03/22 07:14:44;;;;;;;;;;;9.00;99.90;;;;;;5009616;28;19925;-74
2022/03/22 07:17:11;;;;;;;;;;;9.00;99.90;;;;;;5009670;28;19926;-75
2022/03/22 07:19:38;;;;;;;;;;;9.10;99.90;;;;;;4998958;28;19926;-74
2022/03/22 07:22:06;;;;;;;;;;;9.30;99.90;;;;;;5005921;28;19933;-73
2022/03/22 07:24:33;;;;;;;;;;;9.40;99.90;;;;;;4992974;28;19961;-73
2022/03/22 07:27:01;;;;;;;;;;;9.50;99.90;;;;;;5009652;28;19973;-73
2022/03/22 07:29:28;;;;;;;;;;;9.60;99.90;;;;;;5009073;28;19933;-75
2022/03/22 07:31:56;;;;;;;;;;;9.70;99.90;;;;;;5009152;28;19926;-75
2022/03/22 07:34:24;;;;;;;;;;;9.80;99.90;;;;;;4989062;28;19960;-74
2022/03/22 07:36:52;;;;;;;;;;;9.90;99.90;;;;;;4993204;28;20457;-74
2022/03/22 07:39:19;;;;;;;;;;;10.00;99.90;;;;;;4991863;28;20294;-75
2022/03/22 07:41:46;;;;;;;;;;;10.10;99.90;;;;;;5009003;28;20021;-74
2022/03/22 07:44:15;;;;;;;;;;;10.10;99.90;;;;;;5008628;28;19972;-74
2022/03/22 07:46:42;;;;;;;;;;;10.20;99.90;;;;;;5008732;28;19926;-74
2022/03/22 07:54:39;;;;;;;;;;;10.40;99.90;;;;;;5001208;28;19946;-73
2022/03/22 07:57:07;;;;;;;;;;;10.40;99.90;;;;;;4992649;28;19926;-73
2022/03/22 07:59:35;;;;;;;;;;;10.50;99.90;;;;;;4991907;28;20016;-75
2022/03/22 08:02:02;;;;;;;;;;;10.70;99.90;;;;;;5004907;28;20328;-73
2022/03/22 08:04:29;;;;;;;;;;;10.70;99.90;;;;;;4997377;28;19927;-75
2022/03/22 08:06:56;;;;;;;;;;;10.80;99.90;;;;;;4989179;28;20390;-73
2022/03/22 08:09:22;;;;;;;;;;;10.90;99.90;;;;;;4989055;28;19930;-73
2022/03/22 08:11:50;;;;;;;;;;;11.10;99.90;;;;;;4989326;28;19926;-74
2022/03/22 08:14:17;;;;;;;;;;;11.20;99.90;;;;;;5007832;28;19934;-74
2022/03/22 08:16:45;;;;;;;;;;;11.30;99.90;;;;;;4992095;28;19933;-75
2022/03/22 08:19:17;;;;;;;;;;;11.40;99.90;;;;;;4992399;28;19925;-74
2022/03/22 08:21:44;;;;;;;;;;;11.50;99.90;;;;;;4992239;28;19933;-75
2022/03/22 08:24:11;;;;;;;;;;;11.60;99.90;;;;;;4992354;28;20425;-74
2022/03/22 08:26:38;;;;;;;;;;;11.70;99.90;;;;;;4991272;28;19929;-75
2022/03/22 08:29:05;;;;;;;;;;;11.80;99.90;;;;;;5003782;28;19929;-74
2022/03/22 08:31:32;;;;;;;;;;;11.90;99.90;;;;;;4995165;28;19926;-73
2022/03/22 08:34:01;;;;;;;;;;;12.00;99.90;;;;;;4996232;28;19932;-71
2022/03/22 08:36:28;;;;;;;;;;;12.10;99.90;;;;;;5008755;28;19929;-71
2022/03/22 08:38:57;;;;;;;;;;;12.20;99.90;;;;;;5005708;28;19929;-74
2022/03/22 08:41:25;;;;;;;;;;;12.30;99.90;;;;;;4988105;28;20013;-74
2022/03/22 08:43:52;;;;;;;;;;;12.40;99.90;;;;;;4995463;28;19937;-74
2022/03/22 08:46:20;;;;;;;;;;;12.50;99.90;;;;;;5008377;28;19926;-74
2022/03/22 08:48:48;;;;;;;;;;;12.60;99.90;;;;;;5008528;28;19929;-74
2022/03/22 08:51:18;;;;;;;;;;;12.70;99.90;;;;;;5008029;28;19926;-74
2022/03/22 08:53:46;;;;;;;;;;;12.70;99.90;;;;;;5008516;28;19926;-74
2022/03/22 08:56:13;;;;;;;;;;;12.80;99.90;;;;;;5011417;28;19932;-74
2022/03/22 08:58:41;;;;;;;;;;;12.80;99.90;;;;;;5005042;28;20412;-73
2022/03/22 09:01:08;;;;;;;;;;;12.80;99.90;;;;;;5006751;28;19926;-75
2022/03/22 09:03:35;;;;;;;;;;;12.90;99.90;;;;;;4990288;28;20291;-75
2022/03/22 09:06:11;;;;;;;;;;;12.90;99.90;;;;;;5007732;28;19930;-73
2022/03/22 09:08:41;;;;;;;;;;;12.90;99.90;;;;;;5007408;28;20402;-74
2022/03/22 09:11:08;;;;;;;;;;;13.00;99.90;;;;;;4987399;28;19926;-74
2022/03/22 09:13:35;;;;;;;;;;;13.10;99.90;;;;;;4987615;28;19927;-75
2022/03/22 09:16:02;;;;;;;;;;;13.20;99.90;;;;;;4988077;28;19949;-74
2022/03/22 09:18:29;;;;;;;;;;;13.30;99.90;;;;;;4989840;28;20390;-73
2022/03/22 09:20:56;;;;;;;;;;;13.40;99.90;;;;;;4990995;28;19926;-74
2022/03/22 09:23:24;;;;;;;;;;;13.40;99.90;;;;;;4989305;28;19926;-74
2022/03/22 09:25:54;;;;;;;;;;;13.50;99.90;;;;;;4988161;28;19933;-74
2022/03/22 09:28:21;;;;;;;;;;;13.70;99.90;;;;;;4988462;28;19926;-74
2022/03/22 09:30:49;;;;;;;;;;;13.80;99.90;;;;;;4988285;28;20043;-74
2022/03/22 09:33:17;;;;;;;;;;;13.90;99.90;;;;;;5003685;28;19965;-74
2022/03/22 09:35:44;;;;;;;;;;;14.00;99.90;;;;;;4991562;28;19926;-74
2022/03/22 09:38:10;;;;;;;;;;;14.20;99.90;;;;;;5007833;28;19929;-75
2022/03/22 09:40:37;;;;;;;;;;;14.40;99.90;;;;;;5007806;28;19926;-74
2022/03/22 09:43:06;;;;;;;;;;;14.50;99.90;;;;;;5007627;28;19925;-74
2022/03/22 09:45:33;;;;;;;;;;;14.60;99.90;;;;;;5007414;28;19932;-74
2022/03/22 09:48:00;;;;;;;;;;;14.70;99.90;;;;;;5004298;28;19933;-74
2022/03/22 09:53:09;;;;;;;;;;;15.00;99.90;;;;;;4990099;28;19925;-74
2022/03/22 09:55:36;;;;;;;;;;;15.10;99.90;;;;;;5007732;28;19926;-74
2022/03/22 09:58:03;;;;;;;;;;;15.10;99.90;;;;;;4991013;28;19929;-74
2022/03/22 10:00:32;;;;;;;;;;;15.20;99.90;;;;;;5007620;28;19937;-74
2022/03/22 10:02:59;;;;;;;;;;;15.30;99.90;;;;;;5007654;28;19936;-75
2022/03/22 10:05:26;;;;;;;;;;;15.30;99.90;;;;;;5007537;28;19933;-75
2022/03/22 10:07:59;;;;;;;;;;;15.40;99.90;;;;;;5007555;28;19930;-75
2022/03/22 10:10:26;;;;;;;;;;;15.60;99.90;;;;;;5006792;28;19929;-71
2022/03/22 10:12:56;;;;;;;;;;;15.70;99.90;;;;;;4991721;28;19925;-73
2022/03/22 10:15:29;;;;;;;;;;;15.80;99.90;;;;;;4992166;28;20385;-73
2022/03/22 10:18:04;;;;;;;;;;;15.90;99.90;;;;;;4995651;28;19933;-73
2022/03/22 10:20:32;;;;;;;;;;;16.00;99.90;;;;;;4995311;28;19926;-73
2022/03/22 10:22:59;;;;;;;;;;;16.10;99.90;;;;;;5012005;28;20000;-74
2022/03/22 10:25:26;;;;;;;;;;;16.20;99.90;;;;;;5011161;28;19930;-74
2022/03/22 10:27:54;;;;;;;;;;;16.40;99.90;;;;;;4994111;28;19926;-73
2022/03/22 10:30:21;;;;;;;;;;;16.50;99.90;;;;;;5010353;28;19926;-74
2022/03/22 10:32:51;;;;;;;;;;;16.60;99.90;;;;;;5010479;28;19926;-74
2022/03/22 10:35:21;;;;;;;;;;;16.70;99.90;;;;;;4994011;28;19926;-74
2022/03/22 10:37:48;;;;;;;;;;;16.80;99.90;;;;;;4993950;28;19968;-74
2022/03/22 10:40:26;;;;;;;;;;;16.80;99.90;;;;;;4994022;28;19933;-74
2022/03/22 10:42:54;;;;;;;;;;;16.70;99.90;;;;;;4994290;28;19926;-74
2022/03/22 10:45:21;;;;;;;;;;;16.80;99.90;;;;;;4994029;28;19926;-74
2022/03/22 10:47:48;;;;;;;;;;;17.00;99.90;;;;;;4994225;28;19952;-74
2022/03/22 10:50:15;;;;;;;;;;;17.10;99.90;;;;;;4994177;28;19925;-74
2022/03/22 10:52:51;;;;;;;;;;;17.30;99.90;;;;;;4994293;28;19948;-74
2022/03/22 10:55:21;;;;;;;;;;;17.40;99.90;;;;;;4993540;28;19925;-73
2022/03/22 10:57:50;;;;;;;;;;;17.50;99.90;;;;;;4993531;28;19996;-74
2022/03/22 11:00:17;;;;;;;;;;;17.70;99.90;;;;;;5009593;28;20386;-74
2022/03/22 11:02:47;;;;;;;;;;;17.80;99.90;;;;;;4993264;28;20391;-74
2022/03/22 11:05:15;;;;;;;;;;;17.80;99.90;;;;;;4993058;28;20282;-74
2022/03/22 11:07:43;;;;;;;;;;;17.90;99.90;;;;;;4993592;28;19933;-73
2022/03/22 11:10:11;;;;;;;;;;;18.10;99.90;;;;;;4993167;28;19926;-73
2022/03/22 11:12:38;;;;;;;;;;;18.30;99.90;;;;;;4993436;28;19929;-73
2022/03/22 11:15:06;;;;;;;;;;;18.60;99.90;;;;;;4993131;28;20297;-74
2022/03/22 11:17:34;;;;;;;;;;;18.60;99.90;;;;;;4993357;28;20402;-74
2022/03/22 11:20:04;;;;;;;;;;;18.50;99.90;;;;;;4992682;28;19954;-71
2022/03/22 11:22:32;;;;;;;;;;;18.60;99.90;;;;;;4985288;28;19926;-73
2022/03/22 11:25:08;;;;;;;;;;;18.80;99.90;;;;;;4993049;28;19976;-73
2022/03/22 11:27:38;;;;;;;;;;;18.90;99.90;;;;;;5009238;28;19926;-73
2022/03/22 11:30:06;;;;;;;;;;;18.70;99.90;;;;;;4992975;28;19992;-74
2022/03/22 11:35:17;;;;;;;;;;;18.90;99.90;;;;;;4993173;28;19922;-74
2022/03/22 11:37:54;;;;;;;;;;;19.10;99.90;;;;;;4993204;28;20250;-74
2022/03/22 11:43:11;;;;;;;;;;;19.70;99.90;;;;;;5004341;28;19929;-75
2022/03/22 11:45:46;;;;;;;;;;;20.00;99.90;;;;;;5005644;28;19925;-76
2022/03/22 11:48:12;;;;;;;;;;;21.80;99.90;;;;;;4992586;28;20315;-72
2022/03/22 11:50:42;;;;;;;;;;;26.10;99.90;;;;;;5009883;28;19937;-71
2022/03/22 11:53:16;;;;;;;;;;;28.60;99.90;;;;;;5010025;28;19930;-72
2022/03/22 11:55:44;;;;;;;;;;;30.60;99.90;;;;;;5009836;28;20377;-72
2022/03/22 11:58:14;;;;;;;;;;;33.00;99.90;;;;;;5009640;28;19925;-74
2022/03/22 12:00:42;;;;;;;;;;;33.80;96.40;;;;;;5009207;28;19926;-76
2022/03/22 12:03:10;;;;;;;;;;;34.10;96.40;;;;;;4992918;28;19984;-75
2022/03/22 12:05:37;;;;;;;;;;;34.90;95.70;;;;;;4993239;28;19949;-75
2022/03/22 12:08:06;;;;;;;;;;;36.00;94.50;;;;;;4993143;28;19926;-75
2022/03/22 12:10:33;;;;;;;;;;;35.00;93.20;;;;;;5009236;28;19926;-75
2022/03/22 12:13:00;;;;;;;;;;;34.50;92.20;;;;;;4992604;28;19933;-72
2022/03/22 12:15:29;;;;;;;;;;;34.40;91.30;;;;;;4992703;28;19932;-72
2022/03/22 12:17:57;;;;;;;;;;;33.30;90.90;;;;;;4992905;28;19925;-72
2022/03/22 12:20:24;;;;;;;;;;;33.90;90.90;;;;;;4992452;28;19930;-71
2022/03/22 12:22:52;;;;;;;;;;;33.20;88.40;;;;;;4992538;28;19950;-71
2022/03/22 12:25:21;;;;;;;;;;;33.40;86.00;;;;;;4992764;28;19964;-71
2022/03/22 12:27:54;;;;;;;;;;;34.10;88.50;;;;;;4992824;28;19926;-71
2022/03/22 12:30:22;;;;;;;;;;;33.60;85.60;;;;;;4992498;28;19926;-71
2022/03/22 12:32:51;;;;;;;;;;;33.40;86.60;;;;;;4992574;28;20318;-72
2022/03/22 12:35:19;;;;;;;;;;;32.90;83.70;;;;;;4992545;28;19925;-72
2022/03/22 12:37:46;;;;;;;;;;;32.70;85.90;;;;;;4992386;28;19925;-75
2022/03/22 12:40:13;;;;;;;;;;;32.30;84.50;;;;;;5008062;28;20028;-76
2022/03/22 12:42:40;;;;;;;;;;;32.30;84.10;;;;;;5008498;28;19969;-75
2022/03/22 12:45:07;;;;;;;;;;;32.20;84.70;;;;;;5008449;28;19930;-75
2022/03/22 12:47:37;;;;;;;;;;;30.80;82.10;;;;;;5008235;28;20385;-76
2022/03/22 12:50:06;;;;;;;;;;;30.70;83.20;;;;;;5008163;28;19926;-76
2022/03/22 12:52:33;;;;;;;;;;;31.60;83.80;;;;;;5007848;28;19961;-76
2022/03/22 12:55:00;;;;;;;;;;;32.40;85.20;;;;;;5008192;28;19926;-75
2022/03/22 12:57:29;;;;;;;;;;;31.90;82.40;;;;;;5008201;28;19993;-75
2022/03/22 12:59:55;;;;;;;;;;;31.00;82.00;;;;;;5005924;28;19926;-75
2022/03/22 13:02:23;;;;;;;;;;;30.90;81.80;;;;;;5007008;28;20304;-75
2022/03/22 13:04:51;;;;;;;;;;;31.50;83.40;;;;;;4996851;28;19941;-75
2022/03/22 13:07:22;;;;;;;;;;;32.10;83.50;;;;;;4999821;28;19925;-75
2022/03/22 13:12:34;;;;;;;;;;;31.60;80.90;;;;;;4993279;28;19944;-75
2022/03/22 13:15:05;;;;;;;;;;;31.50;81.30;;;;;;5009012;28;19932;-76
2022/03/22 13:17:34;;;;;;;;;;;31.10;80.20;;;;;;4994157;28;19926;-75
2022/03/22 13:20:01;;;;;;;;;;;30.60;80.30;;;;;;4993406;28;19926;-76
2022/03/22 13:22:30;;;;;;;;;;;30.20;80.10;;;;;;5008807;28;20420;-76
2022/03/22 13:25:04;;;;;;;;;;;30.00;80.80;;;;;;5007810;28;19926;-75
2022/03/22 13:27:31;;;;;;;;;;;30.30;80.00;;;;;;5008021;28;20282;-75
2022/03/22 13:29:58;;;;;;;;;;;30.90;80.80;;;;;;4999459;28;19926;-76
2022/03/22 13:32:28;;;;;;;;;;;31.30;81.10;;;;;;5003890;28;20020;-75
2022/03/22 13:34:59;;;;;;;;;;;30.80;80.80;;;;;;4990663;28;19968;-75
2022/03/22 13:37:26;;;;;;;;;;;30.90;80.50;;;;;;5008182;28;19925;-77
2022/03/22 13:40:04;;;;;;;;;;;30.70;79.50;;;;;;4991203;28;19930;-76
2022/03/22 13:42:31;;;;;;;;;;;31.00;78.70;;;;;;4991595;28;19956;-76
2022/03/22 13:44:59;;;;;;;;;;;30.60;78.40;;;;;;4991031;28;19949;-77
2022/03/22 13:47:31;;;;;;;;;;;30.10;79.00;;;;;;4991047;28;19926;-76
2022/03/22 13:49:58;;;;;;;;;;;30.00;78.60;;;;;;5008102;28;19925;-76
2022/03/22 13:52:25;;;;;;;;;;;30.00;78.10;;;;;;4994056;28;20293;-76
2022/03/22 13:54:53;;;;;;;;;;;30.30;77.80;;;;;;4994543;28;20431;-77
2022/03/22 13:57:24;;;;;;;;;;;30.20;76.50;;;;;;4994465;28;19929;-75
2022/03/22 13:59:56;;;;;;;;;;;29.40;76.40;;;;;;5011501;28;19969;-76
2022/03/22 14:02:23;;;;;;;;;;;28.70;76.70;;;;;;4994347;28;19926;-76
2022/03/22 14:04:50;;;;;;;;;;;28.50;75.40;;;;;;4994167;28;20465;-74
2022/03/22 14:07:17;;;;;;;;;;;27.60;73.80;;;;;;4994557;28;19926;-76
2022/03/22 14:09:44;;;;;;;;;;;27.40;75.70;;;;;;4994197;28;19925;-74
2022/03/22 14:12:11;;;;;;;;;;;27.70;73.10;;;;;;4994678;28;19980;-75
2022/03/22 14:14:39;;;;;;;;;;;27.40;73.10;;;;;;4994362;28;19926;-77
2022/03/22 14:17:06;;;;;;;;;;;26.80;74.10;;;;;;4994757;28;19926;-76
2022/03/22 14:19:33;;;;;;;;;;;26.40;71.90;;;;;;4994176;28;19949;-77
2022/03/22 14:22:00;;;;;;;;;;;26.50;73.40;;;;;;4994604;28;19929;-77
2022/03/22 14:24:26;;;;;;;;;;;26.90;73.90;;;;;;4993919;28;19925;-76
2022/03/22 14:26:53;;;;;;;;;;;26.70;70.80;;;;;;4994184;28;19930;-77
2022/03/22 14:29:20;;;;;;;;;;;25.90;70.60;;;;;;4993764;28;20408;-77
2022/03/22 14:31:48;;;;;;;;;;;26.00;72.70;;;;;;4994160;28;19976;-76
2022/03/22 14:35:46;;;;;;;;;;;25.70;71.50;;;;;;4992690;28;20017;-75
2022/03/22 14:37:04;;;;;;;;;;;25.60;70.80;;;;;;4994058;28;19932;-77
2022/03/22 14:39:31;;;;;;;;;;;26.60;72.30;;;;;;5010322;28;19929;-76
2022/03/22 14:42:02;;;;;;;;;;;26.80;69.90;;;;;;5010730;28;19925;-76
2022/03/22 14:44:29;;;;;;;;;;;26.10;70.60;;;;;;5009995;28;20411;-77
2022/03/22 14:46:57;;;;;;;;;;;26.40;72.40;;;;;;4993952;28;20332;-76
2022/03/22 14:49:25;;;;;;;;;;;26.20;71.50;;;;;;5009889;28;19926;-76
2022/03/22 14:54:36;;;;;;;;;;;26.70;71.10;;;;;;4993639;28;19922;-75
2022/03/22 14:59:53;;;;;;;;;;;26.20;71.50;;;;;;4956632;28;19978;-76
2022/03/22 15:02:21;;;;;;;;;;;25.80;69.30;;;;;;5009158;28;20500;-76
2022/03/22 15:04:48;;;;;;;;;;;25.60;70.10;;;;;;5009628;28;20021;-75
2022/03/22 15:07:21;;;;;;;;;;;25.40;70.00;;;;;;5010255;28;19926;-76
2022/03/22 15:09:48;;;;;;;;;;;25.80;71.80;;;;;;4995334;28;19930;-77
2022/03/22 15:12:15;;;;;;;;;;;26.10;70.40;;;;;;4993802;28;19925;-77